Time;durP1;ratioP1;P1;durP2;ratioP2;P2;SDS_P1;SDS_P2;PMS_P1;PMS_P2;Temp;Humidity;BMP_temperature;BMP_pressure;BME280_temperature;BME280_humidity;BME280_pressure;Samples;Min_cycle;Max_cycle;Signal;HPM_P1;HPM_P2
2023/12/04 00:01:35;;;;;;;45.25;28.98;;;-1.00;99.90;;;;;;4957856;28;20043;-76
2023/12/04 00:04:01;;;;;;;50.67;28.98;;;-1.00;99.90;;;;;;4957128;28;20020;-76
2023/12/04 00:06:27;;;;;;;44.10;28.90;;;-0.90;99.90;;;;;;4956225;28;20546;-76
2023/12/04 00:08:53;;;;;;;46.35;27.48;;;-0.90;99.90;;;;;;4960760;28;20173;-76
2023/12/04 00:11:19;;;;;;;43.83;27.75;;;-1.00;99.90;;;;;;4972970;28;20808;-75
2023/12/04 00:13:45;;;;;;;38.47;25.42;;;-1.00;99.90;;;;;;4966851;28;20171;-78
2023/12/04 00:16:11;;;;;;;43.25;25.98;;;-1.00;99.90;;;;;;4955590;28;20057;-77
2023/12/04 00:18:37;;;;;;;40.85;24.52;;;-1.00;99.90;;;;;;4957353;28;20042;-77
2023/12/04 00:21:03;;;;;;;38.72;23.77;;;-1.00;99.90;;;;;;4979175;28;20030;-78
2023/12/04 00:23:29;;;;;;;34.00;22.48;;;-0.90;99.90;;;;;;4994422;28;20377;-76
2023/12/04 00:25:55;;;;;;;37.58;23.70;;;-0.90;99.90;;;;;;4977030;28;20035;-75
2023/12/04 00:28:21;;;;;;;38.85;22.77;;;-0.90;99.90;;;;;;4994046;28;20482;-73
2023/12/04 00:30:48;;;;;;;34.53;21.55;;;-1.00;99.90;;;;;;4994306;28;20141;-75
2023/12/04 00:33:14;;;;;;;39.40;23.42;;;-1.00;99.90;;;;;;4994289;28;20025;-74
2023/12/04 00:35:40;;;;;;;32.20;21.80;;;-1.00;99.90;;;;;;4994068;28;20445;-75
2023/12/04 00:38:05;;;;;;;37.42;22.50;;;-0.90;99.90;;;;;;4976991;28;20084;-74
2023/12/04 00:40:31;;;;;;;36.00;21.05;;;-0.80;99.90;;;;;;4976394;28;20146;-77
2023/12/04 00:42:58;;;;;;;34.42;20.65;;;-0.90;99.90;;;;;;4974774;28;20023;-77
2023/12/04 00:45:24;;;;;;;33.67;19.77;;;-0.80;99.90;;;;;;4956575;28;20454;-77
2023/12/04 00:47:50;;;;;;;33.83;19.90;;;-0.90;99.90;;;;;;4974153;28;20034;-76
2023/12/04 00:50:16;;;;;;;31.17;19.60;;;-1.00;99.90;;;;;;4974605;28;20054;-78
2023/12/04 00:52:41;;;;;;;30.27;19.10;;;-1.10;99.90;;;;;;4974378;28;20110;-75
2023/12/04 00:55:07;;;;;;;33.28;19.55;;;-1.10;99.90;;;;;;4974687;28;20041;-76
2023/12/04 00:57:33;;;;;;;32.22;20.42;;;-1.10;99.90;;;;;;4974380;28;20037;-76
2023/12/04 00:59:59;;;;;;;35.15;22.38;;;-1.10;99.90;;;;;;4974564;28;20394;-77
2023/12/04 01:02:25;;;;;;;48.75;25.67;;;-1.10;99.90;;;;;;4956848;28;20066;-75
2023/12/04 01:04:51;;;;;;;46.88;29.38;;;-1.10;99.90;;;;;;4974285;28;20143;-75
2023/12/04 01:07:17;;;;;;;54.85;32.75;;;-1.10;99.90;;;;;;4973622;28;20022;-78
2023/12/04 01:09:43;;;;;;;62.00;38.10;;;-1.10;99.90;;;;;;4974139;28;20051;-74
2023/12/04 01:12:08;;;;;;;77.50;41.80;;;-1.10;99.90;;;;;;4974346;28;20065;-76
2023/12/04 01:14:38;;;;;;;79.00;44.28;;;-1.10;99.90;;;;;;4974338;28;20470;-76
2023/12/04 01:17:04;;;;;;;78.03;45.53;;;-1.10;99.90;;;;;;4974171;28;20363;-77
2023/12/04 01:19:30;;;;;;;65.63;37.72;;;-1.00;99.90;;;;;;4973811;28;20372;-73
2023/12/04 01:21:56;;;;;;;56.88;31.55;;;-1.00;99.90;;;;;;4974256;28;20069;-77
2023/12/04 01:24:21;;;;;;;53.30;30.27;;;-1.10;99.90;;;;;;4973741;28;20034;-75
2023/12/04 01:26:47;;;;;;;47.75;29.35;;;-1.10;99.90;;;;;;4974111;28;20035;-78
2023/12/04 01:29:13;;;;;;;44.20;27.35;;;-1.20;99.90;;;;;;4973811;28;20023;-76
2023/12/04 01:31:39;;;;;;;45.33;27.60;;;-1.20;99.90;;;;;;4956660;28;20046;-76
2023/12/04 01:34:05;;;;;;;49.20;27.13;;;-1.30;99.90;;;;;;4973654;28;20482;-73
2023/12/04 01:36:31;;;;;;;47.72;27.98;;;-1.20;99.90;;;;;;4973738;28;20053;-74
2023/12/04 01:38:56;;;;;;;49.03;27.67;;;-1.10;99.90;;;;;;4968292;28;20074;-74
2023/12/04 01:41:22;;;;;;;47.33;26.38;;;-1.10;99.90;;;;;;4954255;29;20027;-78
2023/12/04 01:43:48;;;;;;;45.67;25.95;;;-1.20;99.90;;;;;;4954424;29;20368;-73
2023/12/04 01:46:17;;;;;;;40.75;25.50;;;-1.30;99.90;;;;;;4954170;29;20033;-77
2023/12/04 01:48:45;;;;;;;44.03;26.40;;;-1.20;99.90;;;;;;4954283;29;20361;-73
2023/12/04 01:51:12;;;;;;;44.38;28.15;;;-1.30;99.90;;;;;;4954153;29;20059;-73
2023/12/04 01:53:40;;;;;;;42.90;26.52;;;-1.20;99.90;;;;;;4954026;29;20215;-75
2023/12/04 01:56:07;;;;;;;42.33;26.60;;;-1.20;99.90;;;;;;4954128;29;20035;-74
2023/12/04 01:58:34;;;;;;;45.42;26.77;;;-1.20;99.90;;;;;;4942206;28;20033;-72
2023/12/04 02:01:00;;;;;;;51.70;28.92;;;-1.30;99.90;;;;;;4973577;28;20041;-77
2023/12/04 02:03:26;;;;;;;48.60;29.50;;;-1.40;99.90;;;;;;4955639;28;20038;-71
2023/12/04 02:05:53;;;;;;;51.42;29.35;;;-1.40;99.90;;;;;;4988289;28;20038;-75
2023/12/04 02:08:19;;;;;;;56.28;33.08;;;-1.40;99.90;;;;;;4955803;28;20023;-76
2023/12/04 02:10:45;;;;;;;50.80;30.25;;;-1.30;99.90;;;;;;4972727;28;20051;-76
2023/12/04 02:13:11;;;;;;;50.30;28.77;;;-1.30;99.90;;;;;;4972447;28;20371;-78
2023/12/04 02:15:37;;;;;;;48.53;29.20;;;-1.30;99.90;;;;;;4972659;28;20100;-77
2023/12/04 02:18:03;;;;;;;48.90;29.25;;;-1.30;99.90;;;;;;4971365;28;20478;-74
2023/12/04 02:20:33;;;;;;;51.85;29.17;;;-1.30;99.90;;;;;;4972099;28;20024;-75
2023/12/04 02:23:02;;;;;;;49.38;29.67;;;-1.30;99.90;;;;;;4987074;28;20598;-75
2023/12/04 02:25:30;;;;;;;46.83;28.35;;;-1.30;99.90;;;;;;4972131;28;20186;-77
2023/12/04 02:28:01;;;;;;;50.88;30.48;;;-1.30;99.90;;;;;;4958328;28;20077;-73
2023/12/04 02:30:30;;;;;;;55.05;32.33;;;-1.20;99.90;;;;;;4935781;29;20035;-77
2023/12/04 02:32:58;;;;;;;50.40;30.92;;;-1.20;99.90;;;;;;4953168;29;20034;-75
2023/12/04 02:35:29;;;;;;;45.92;27.88;;;-1.30;99.90;;;;;;4952549;29;20054;-75
2023/12/04 02:37:58;;;;;;;40.95;25.52;;;-1.30;99.90;;;;;;4970673;28;20114;-77
2023/12/04 02:40:24;;;;;;;38.70;23.73;;;-1.40;99.90;;;;;;4971892;28;20037;-75
2023/12/04 02:42:50;;;;;;;35.95;21.70;;;-1.40;99.90;;;;;;4954605;28;20465;-77
2023/12/04 02:45:16;;;;;;;35.47;22.75;;;-1.50;99.90;;;;;;4971740;28;20042;-74
2023/12/04 02:47:42;;;;;;;35.42;19.50;;;-1.50;99.90;;;;;;4953946;28;20086;-74
2023/12/04 02:50:08;;;;;;;30.08;18.42;;;-1.40;99.90;;;;;;4971939;28;20106;-74
2023/12/04 02:52:34;;;;;;;37.05;20.67;;;-1.40;99.90;;;;;;4971819;28;20038;-79
2023/12/04 02:54:59;;;;;;;35.45;20.50;;;-1.40;99.90;;;;;;4971918;28;20033;-77
2023/12/04 02:57:25;;;;;;;34.60;20.48;;;-1.40;99.90;;;;;;4971872;28;20054;-78
2023/12/04 02:59:51;;;;;;;33.88;19.38;;;-1.40;99.90;;;;;;4968870;28;20382;-74
2023/12/04 03:02:17;;;;;;;33.65;21.17;;;-1.40;99.90;;;;;;4971574;28;20026;-77
2023/12/04 03:04:43;;;;;;;35.45;22.65;;;-1.40;99.90;;;;;;4971337;28;20027;-74
2023/12/04 03:07:09;;;;;;;38.83;22.38;;;-1.30;99.90;;;;;;4954920;28;20544;-75
2023/12/04 03:09:35;;;;;;;46.10;24.98;;;-1.30;99.90;;;;;;4930359;28;1193524;-77
2023/12/04 03:12:00;;;;;;;44.83;26.65;;;-1.30;99.90;;;;;;4955266;28;20045;-79
2023/12/04 03:14:26;;;;;;;41.65;24.15;;;-1.40;99.90;;;;;;4955165;28;20023;-75
2023/12/04 03:16:52;;;;;;;39.03;21.25;;;-1.40;99.90;;;;;;4987317;28;20046;-78
2023/12/04 03:19:18;;;;;;;40.10;22.42;;;-1.40;99.90;;;;;;4972076;28;20023;-76
2023/12/04 03:21:44;;;;;;;42.50;26.45;;;-1.50;99.90;;;;;;4972491;28;20145;-71
2023/12/04 03:24:10;;;;;;;42.75;26.10;;;-1.50;99.90;;;;;;4972531;28;20027;-76
2023/12/04 03:26:36;;;;;;;58.03;34.72;;;-1.70;99.90;;;;;;4972775;28;20038;-75
2023/12/04 03:29:01;;;;;;;91.65;53.58;;;-1.70;99.90;;;;;;4972622;28;20029;-74
2023/12/04 03:31:28;;;;;;;101.97;56.70;;;-1.60;99.90;;;;;;4975240;28;20106;-75
2023/12/04 03:33:54;;;;;;;65.43;39.80;;;-1.60;99.90;;;;;;4976152;28;20023;-74
2023/12/04 03:36:20;;;;;;;84.93;46.72;;;-1.60;99.90;;;;;;4974885;28;20497;-74
2023/12/04 03:38:46;;;;;;;90.88;50.50;;;-1.50;99.90;;;;;;4975782;28;20031;-75
2023/12/04 03:41:15;;;;;;;87.70;50.88;;;-1.60;99.90;;;;;;4975372;28;20118;-76
2023/12/04 03:43:41;;;;;;;86.15;51.08;;;-1.60;99.90;;;;;;4975858;28;20082;-77
2023/12/04 03:46:07;;;;;;;83.57;49.17;;;-1.60;99.90;;;;;;4975308;28;20437;-77
2023/12/04 03:48:33;;;;;;;93.43;51.28;;;-1.50;99.90;;;;;;4949048;28;20071;-76
2023/12/04 03:50:59;;;;;;;61.05;37.28;;;-1.50;99.90;;;;;;4973275;28;20058;-77
2023/12/04 03:53:26;;;;;;;62.40;37.13;;;-1.60;99.90;;;;;;4975610;28;20066;-78
2023/12/04 03:55:52;;;;;;;57.35;33.47;;;-1.70;99.90;;;;;;4974997;28;20041;-75
2023/12/04 03:58:18;;;;;;;59.28;33.60;;;-1.70;99.90;;;;;;4975045;28;20039;-74
2023/12/04 04:00:44;;;;;;;57.75;35.58;;;-1.80;99.90;;;;;;4957792;28;20114;-78
2023/12/04 04:03:10;;;;;;;61.03;37.55;;;-1.80;99.90;;;;;;4975034;28;20074;-74
2023/12/04 04:05:36;;;;;;;53.58;32.95;;;-1.80;99.90;;;;;;4972973;28;20501;-76
2023/12/04 04:08:02;;;;;;;72.82;43.85;;;-1.80;99.90;;;;;;4974687;28;20034;-78
2023/12/04 04:10:28;;;;;;;54.45;33.22;;;-1.80;99.90;;;;;;4957832;28;20051;-73
2023/12/04 04:12:54;;;;;;;54.40;34.33;;;-1.80;99.90;;;;;;4967929;28;20078;-77
2023/12/04 04:15:20;;;;;;;75.75;43.97;;;-1.80;99.90;;;;;;4955919;29;20107;-74
2023/12/04 04:17:46;;;;;;;79.40;47.45;;;-1.90;99.90;;;;;;4955938;29;20066;-76
2023/12/04 04:20:12;;;;;;;78.18;42.17;;;-1.90;99.90;;;;;;4958142;28;20027;-76
2023/12/04 04:22:40;;;;;;;73.82;43.38;;;-1.90;99.90;;;;;;4974963;28;20066;-75
2023/12/04 04:25:10;;;;;;;79.40;45.13;;;-1.80;99.90;;;;;;4956775;28;20039;-73
2023/12/04 04:27:36;;;;;;;60.80;37.60;;;-1.80;99.90;;;;;;4975169;28;20037;-76
2023/12/04 04:30:02;;;;;;;54.17;32.20;;;-1.70;99.90;;;;;;4956829;28;20386;-76
2023/12/04 04:32:28;;;;;;;94.88;57.92;;;-1.70;99.90;;;;;;4974853;28;20038;-77
2023/12/04 04:34:54;;;;;;;89.63;58.30;;;-1.70;99.90;;;;;;4974082;28;20027;-76
2023/12/04 04:37:20;;;;;;;74.78;48.13;;;-1.70;99.90;;;;;;4974370;28;20035;-77
2023/12/04 04:39:46;;;;;;;58.13;34.17;;;-1.70;99.90;;;;;;4957229;28;20030;-75
2023/12/04 04:42:12;;;;;;;63.90;39.85;;;-1.80;99.90;;;;;;4973621;28;20035;-78
2023/12/04 04:44:38;;;;;;;67.78;38.03;;;-1.80;99.90;;;;;;4956807;28;20446;-76
2023/12/04 04:47:04;;;;;;;49.33;31.35;;;-1.80;99.90;;;;;;4973618;28;20098;-75
2023/12/04 04:49:30;;;;;;;45.78;29.33;;;-1.80;99.90;;;;;;4974389;28;20058;-76
2023/12/04 04:51:55;;;;;;;54.92;31.88;;;-1.80;99.90;;;;;;4956616;28;20076;-77
2023/12/04 04:54:21;;;;;;;47.03;30.38;;;-1.80;99.90;;;;;;4988985;28;20030;-77
2023/12/04 04:56:47;;;;;;;45.70;28.75;;;-1.80;99.90;;;;;;4974201;28;20035;-75
2023/12/04 04:59:13;;;;;;;44.97;28.65;;;-1.70;99.90;;;;;;4956795;28;20027;-80
2023/12/04 05:01:39;;;;;;;46.15;28.98;;;-1.70;99.90;;;;;;4973719;28;20053;-77
2023/12/04 05:04:05;;;;;;;49.83;30.48;;;-1.70;99.90;;;;;;4974155;28;20026;-75
2023/12/04 05:06:31;;;;;;;48.97;30.63;;;-1.80;99.90;;;;;;4973970;28;20398;-78
2023/12/04 05:08:57;;;;;;;52.70;33.80;;;-1.80;99.90;;;;;;4973464;28;20030;-79
2023/12/04 05:11:23;;;;;;;64.18;37.45;;;-1.80;99.90;;;;;;4973810;28;20047;-78
2023/12/04 05:13:49;;;;;;;59.95;34.00;;;-1.80;99.90;;;;;;4973824;28;20031;-78
2023/12/04 05:16:15;;;;;;;58.30;33.80;;;-1.80;99.90;;;;;;4956600;28;20043;-76
2023/12/04 05:18:41;;;;;;;52.03;30.13;;;-1.80;99.90;;;;;;4973775;28;20042;-78
2023/12/04 05:21:11;;;;;;;51.60;29.52;;;-1.80;99.90;;;;;;4973890;28;20537;-76
2023/12/04 05:23:38;;;;;;;53.85;31.45;;;-1.80;99.90;;;;;;4973413;28;20038;-77
2023/12/04 05:26:05;;;;;;;51.20;29.83;;;-1.90;99.90;;;;;;4973685;28;20462;-78
2023/12/04 05:28:31;;;;;;;49.35;30.83;;;-1.90;99.90;;;;;;4973787;28;20022;-75
2023/12/04 05:30:57;;;;;;;55.20;29.77;;;-1.90;99.90;;;;;;4974199;28;20125;-77
2023/12/04 05:33:23;;;;;;;45.17;27.45;;;-1.90;99.90;;;;;;4973715;28;20426;-76
2023/12/04 05:35:51;;;;;;;51.95;27.38;;;-1.90;99.90;;;;;;4973215;28;20035;-75
2023/12/04 05:38:17;;;;;;;43.33;26.50;;;-1.80;99.90;;;;;;4956109;28;20031;-74
2023/12/04 05:40:43;;;;;;;45.90;26.30;;;-1.80;99.90;;;;;;4973116;28;20031;-75
2023/12/04 05:43:08;;;;;;;50.25;27.50;;;-1.80;99.90;;;;;;4973734;28;20105;-76
2023/12/04 05:45:34;;;;;;;45.92;26.08;;;-1.80;99.90;;;;;;4973468;28;20126;-75
2023/12/04 05:48:00;;;;;;;52.53;30.60;;;-1.70;99.90;;;;;;4973607;28;20434;-76
2023/12/04 05:50:26;;;;;;;54.63;32.45;;;-1.80;99.90;;;;;;4973104;28;20474;-75
2023/12/04 05:52:52;;;;;;;60.72;34.85;;;-1.80;99.90;;;;;;4973494;28;20035;-76
2023/12/04 05:55:18;;;;;;;60.00;30.90;;;-1.90;99.90;;;;;;4972323;28;20027;-75
2023/12/04 05:57:44;;;;;;;55.25;29.60;;;-1.90;99.90;;;;;;4973659;28;20030;-76
2023/12/04 06:00:12;;;;;;;60.58;31.17;;;-1.90;99.90;;;;;;4972556;28;20101;-76
2023/12/04 06:02:45;;;;;;;43.65;27.95;;;-2.00;99.90;;;;;;4973385;28;20113;-73
2023/12/04 06:05:11;;;;;;;48.25;29.85;;;-2.00;99.90;;;;;;4973094;28;20098;-76
2023/12/04 06:07:37;;;;;;;51.33;29.23;;;-2.00;99.90;;;;;;4972607;28;20050;-73
2023/12/04 06:10:08;;;;;;;48.35;28.35;;;-2.00;99.90;;;;;;4972480;28;20081;-74
2023/12/04 06:12:34;;;;;;;57.22;34.92;;;-2.00;99.90;;;;;;4955353;28;20062;-75
2023/12/04 06:15:00;;;;;;;57.42;33.80;;;-2.20;99.90;;;;;;4972259;28;20018;-74
2023/12/04 06:17:27;;;;;;;63.92;37.83;;;-2.20;99.90;;;;;;4951915;28;20035;-74
2023/12/04 06:19:53;;;;;;;58.80;35.85;;;-2.10;99.90;;;;;;4973323;28;20026;-75
2023/12/04 06:22:21;;;;;;;55.45;33.15;;;-2.10;99.90;;;;;;4962361;28;20063;-72
2023/12/04 06:24:48;;;;;;;50.67;31.85;;;-2.00;99.90;;;;;;4981955;28;20532;-74
2023/12/04 06:27:19;;;;;;;48.53;27.52;;;-1.90;99.90;;;;;;4979723;28;20023;-73
2023/12/04 06:29:45;;;;;;;39.08;25.85;;;-1.80;99.90;;;;;;4977165;28;20023;-73
2023/12/04 06:32:12;;;;;;;39.78;23.02;;;-1.70;99.90;;;;;;4972992;28;20030;-74
2023/12/04 06:34:38;;;;;;;42.47;23.25;;;-1.60;99.90;;;;;;4972281;28;20041;-75
2023/12/04 06:37:10;;;;;;;47.13;26.45;;;-1.50;99.90;;;;;;4972725;28;20413;-75
2023/12/04 06:39:37;;;;;;;44.97;27.15;;;-1.40;99.90;;;;;;4962475;28;20027;-72
2023/12/04 06:42:05;;;;;;;45.42;27.73;;;-1.30;99.90;;;;;;4979676;28;20080;-73
2023/12/04 06:44:31;;;;;;;50.97;29.50;;;-1.20;99.90;;;;;;4991310;28;20041;-72
2023/12/04 06:47:00;;;;;;;45.75;27.33;;;-1.10;99.90;;;;;;4973912;28;20030;-72
2023/12/04 06:49:29;;;;;;;47.80;28.52;;;-1.00;99.90;;;;;;4972926;28;20133;-76
2023/12/04 06:51:55;;;;;;;49.30;30.85;;;-0.90;99.90;;;;;;4972416;28;20035;-76
2023/12/04 06:54:21;;;;;;;56.70;33.42;;;-0.80;99.90;;;;;;4972833;28;20038;-75
2023/12/04 06:56:47;;;;;;;53.83;33.22;;;-0.70;99.90;;;;;;4972495;28;20049;-76
2023/12/04 06:59:13;;;;;;;55.05;32.88;;;-0.60;99.90;;;;;;4972775;28;20049;-76
2023/12/04 07:01:39;;;;;;;60.70;35.28;;;-0.50;99.90;;;;;;4972272;28;20109;-75
2023/12/04 07:04:09;;;;;;;58.47;35.42;;;-0.50;99.90;;;;;;4972600;28;20026;-76
2023/12/04 07:06:36;;;;;;;60.92;37.60;;;-0.40;99.90;;;;;;4988594;28;20027;-74
2023/12/04 07:09:02;;;;;;;53.90;34.05;;;-0.30;99.90;;;;;;4976142;28;20118;-75
2023/12/04 07:11:28;;;;;;;58.00;35.90;;;-0.20;99.90;;;;;;4976264;28;20049;-75
2023/12/04 07:13:54;;;;;;;53.25;34.45;;;-0.10;99.90;;;;;;4976135;28;20031;-76
2023/12/04 07:16:20;;;;;;;57.15;36.00;;;-0.10;99.90;;;;;;4976434;28;20038;-76
2023/12/04 07:18:46;;;;;;;62.28;39.47;;;0.00;99.90;;;;;;4975770;28;20136;-72
2023/12/04 07:21:12;;;;;;;58.28;36.67;;;0.00;99.90;;;;;;4975994;28;20439;-73
2023/12/04 07:23:37;;;;;;;54.15;34.58;;;0.10;99.90;;;;;;4975646;28;20025;-74
2023/12/04 07:26:04;;;;;;;53.22;31.30;;;0.20;99.90;;;;;;4975843;28;20477;-74
2023/12/04 07:28:30;;;;;;;44.28;29.42;;;0.30;99.90;;;;;;4975910;28;20480;-78
2023/12/04 07:30:56;;;;;;;45.70;27.25;;;0.30;99.90;;;;;;4975854;28;20023;-78
2023/12/04 07:33:22;;;;;;;45.47;29.15;;;0.40;99.90;;;;;;4963366;28;20070;-75
2023/12/04 07:35:48;;;;;;;43.08;25.85;;;0.50;99.90;;;;;;4975602;28;20433;-76
2023/12/04 07:38:14;;;;;;;46.72;28.73;;;0.50;99.90;;;;;;4962990;28;20073;-76
2023/12/04 07:40:39;;;;;;;50.35;29.80;;;0.60;99.90;;;;;;4976190;28;20035;-77
2023/12/04 07:43:05;;;;;;;47.33;30.88;;;0.70;99.90;;;;;;4963266;28;20034;-78
2023/12/04 07:45:31;;;;;;;51.90;30.60;;;0.80;99.90;;;;;;4975417;28;20048;-75
2023/12/04 07:47:57;;;;;;;53.03;34.47;;;0.80;99.90;;;;;;4975730;28;20035;-75
2023/12/04 07:50:24;;;;;;;54.28;35.33;;;0.90;99.90;;;;;;4975509;28;20030;-76
2023/12/04 07:52:50;;;;;;;53.95;34.28;;;1.00;99.90;;;;;;4975594;28;20714;-77
2023/12/04 07:55:16;;;;;;;59.17;36.15;;;1.10;99.90;;;;;;4975154;28;20027;-72
2023/12/04 07:57:42;;;;;;;51.70;33.92;;;1.10;99.90;;;;;;4975320;28;20027;-78
2023/12/04 08:00:08;;;;;;;51.85;32.38;;;1.30;99.90;;;;;;4975491;28;20030;-78
2023/12/04 08:02:34;;;;;;;44.63;26.52;;;1.40;99.90;;;;;;4958309;28;20154;-78
2023/12/04 08:05:00;;;;;;;41.40;22.15;;;1.30;99.90;;;;;;4975422;28;20436;-78
2023/12/04 08:07:25;;;;;;;34.80;21.75;;;1.40;99.80;;;;;;4975038;28;20018;-74
2023/12/04 08:09:53;;;;;;;38.90;23.35;;;1.30;99.90;;;;;;4975154;28;20058;-77
2023/12/04 08:12:19;;;;;;;50.70;26.95;;;1.40;99.90;;;;;;4974972;28;20555;-76
2023/12/04 08:14:46;;;;;;;51.90;27.15;;;1.40;99.90;;;;;;4975025;28;20109;-76
2023/12/04 08:17:12;;;;;;;55.72;30.75;;;1.60;99.90;;;;;;4973742;28;20109;-72
2023/12/04 08:19:38;;;;;;;63.40;38.50;;;1.40;99.70;;;;;;4975126;28;20474;-79
2023/12/04 08:22:04;;;;;;;53.55;29.88;;;1.50;99.70;;;;;;4975141;28;20027;-79
2023/12/04 08:24:30;;;;;;;45.25;27.92;;;1.70;99.90;;;;;;4974955;28;20046;-79
2023/12/04 08:26:57;;;;;;;50.35;29.70;;;1.60;99.90;;;;;;4975462;28;20124;-75
2023/12/04 08:29:23;;;;;;;53.80;30.48;;;1.70;99.90;;;;;;4974944;28;20482;-73
2023/12/04 08:31:49;;;;;;;46.30;31.88;;;1.80;99.90;;;;;;4975258;28;20058;-80
2023/12/04 08:34:15;;;;;;;47.15;29.92;;;1.80;99.90;;;;;;4974392;28;20386;-75
2023/12/04 08:36:41;;;;;;;84.22;52.92;;;1.80;99.90;;;;;;4974845;28;20045;-79
2023/12/04 08:39:07;;;;;;;75.45;44.05;;;1.90;99.80;;;;;;4974394;28;20027;-79
2023/12/04 08:41:33;;;;;;;73.13;42.47;;;1.90;99.40;;;;;;4974799;28;20488;-78
2023/12/04 08:43:59;;;;;;;62.92;39.28;;;2.00;99.10;;;;;;4974537;28;20046;-78
2023/12/04 08:46:25;;;;;;;52.15;34.08;;;1.90;99.20;;;;;;4974747;28;20022;-76
2023/12/04 08:48:50;;;;;;;54.17;32.28;;;2.10;99.60;;;;;;4974388;28;20041;-73
2023/12/04 08:51:17;;;;;;;52.05;28.85;;;2.30;99.80;;;;;;4974191;28;20081;-73
2023/12/04 08:53:43;;;;;;;44.92;27.83;;;2.50;98.60;;;;;;4974453;28;20091;-75
2023/12/04 08:56:10;;;;;;;37.78;23.50;;;2.60;98.30;;;;;;4974001;28;20435;-77
2023/12/04 08:58:36;;;;;;;36.70;22.60;;;2.60;98.80;;;;;;4974385;28;20063;-78
2023/12/04 09:01:03;;;;;;;48.55;31.10;;;2.70;99.90;;;;;;4974283;28;20023;-78
2023/12/04 09:03:31;;;;;;;57.38;36.45;;;2.90;99.70;;;;;;4974323;28;20062;-79
2023/12/04 09:05:57;;;;;;;43.03;27.15;;;2.80;98.20;;;;;;4974031;28;20470;-74
2023/12/04 09:08:26;;;;;;;42.10;26.30;;;2.80;99.10;;;;;;4974288;28;20464;-80
2023/12/04 09:10:53;;;;;;;40.40;26.67;;;2.90;99.10;;;;;;4974041;28;20061;-78
2023/12/04 09:13:18;;;;;;;42.50;28.13;;;2.70;99.10;;;;;;4973947;28;20125;-78
2023/12/04 09:15:44;;;;;;;38.72;25.73;;;2.50;99.30;;;;;;4973983;28;20073;-75
2023/12/04 09:18:10;;;;;;;50.70;27.75;;;2.80;99.30;;;;;;4973936;28;20066;-78
2023/12/04 09:20:36;;;;;;;48.47;29.70;;;2.80;99.30;;;;;;4956851;28;20470;-79
2023/12/04 09:23:02;;;;;;;43.90;28.58;;;2.80;98.00;;;;;;4973565;28;20062;-79
2023/12/04 09:25:28;;;;;;;39.67;25.23;;;2.80;98.00;;;;;;4973950;28;20207;-76
2023/12/04 09:27:54;;;;;;;42.35;27.17;;;2.70;97.90;;;;;;4973438;28;20018;-79
2023/12/04 09:30:20;;;;;;;36.88;24.10;;;3.00;97.90;;;;;;4974251;28;20026;-79
2023/12/04 09:32:46;;;;;;;38.63;24.65;;;3.10;97.60;;;;;;4973353;28;20112;-75
2023/12/04 09:35:12;;;;;;;39.03;26.80;;;3.10;99.60;;;;;;4973861;28;20031;-77
2023/12/04 09:37:38;;;;;;;38.72;23.73;;;3.20;97.40;;;;;;4973288;28;20157;-77
2023/12/04 09:40:05;;;;;;;43.95;24.52;;;3.20;96.60;;;;;;4973415;28;20533;-79
2023/12/04 09:42:32;;;;;;;38.45;22.25;;;3.20;96.30;;;;;;4973462;28;20030;-78
2023/12/04 09:44:58;;;;;;;34.00;20.70;;;3.10;95.90;;;;;;4973626;28;20027;-74
2023/12/04 09:47:26;;;;;;;37.20;22.55;;;3.10;97.40;;;;;;4973832;28;20379;-75
2023/12/04 09:49:53;;;;;;;34.95;21.30;;;3.30;97.10;;;;;;4973547;28;20109;-78
2023/12/04 09:52:19;;;;;;;30.45;19.85;;;2.80;96.10;;;;;;4973553;28;20367;-77
2023/12/04 09:54:46;;;;;;;28.48;18.00;;;3.10;96.60;;;;;;4973338;28;20035;-78
2023/12/04 09:57:12;;;;;;;34.72;20.98;;;2.90;95.10;;;;;;4973214;28;20043;-77
2023/12/04 09:59:39;;;;;;;42.33;20.15;;;3.00;95.40;;;;;;4973294;28;20027;-76
2023/12/04 10:02:06;;;;;;;34.38;20.30;;;2.80;95.00;;;;;;4973308;28;20026;-78
2023/12/04 10:04:33;;;;;;;34.80;21.45;;;3.00;95.00;;;;;;4973416;28;20540;-78
2023/12/04 10:06:59;;;;;;;30.58;17.08;;;2.80;95.80;;;;;;4972885;28;20050;-77
2023/12/04 10:09:25;;;;;;;24.63;14.32;;;2.80;94.90;;;;;;4973147;28;20129;-79
2023/12/04 10:11:54;;;;;;;18.40;11.18;;;3.00;95.50;;;;;;4972955;28;20107;-78
2023/12/04 10:14:20;;;;;;;19.33;10.00;;;3.20;95.50;;;;;;4973553;28;20054;-80
2023/12/04 10:16:47;;;;;;;17.23;9.65;;;3.40;95.80;;;;;;4972883;28;20039;-79
2023/12/04 10:19:20;;;;;;;17.70;9.50;;;3.60;94.50;;;;;;4973240;28;20062;-80
2023/12/04 10:21:47;;;;;;;16.42;8.70;;;3.30;93.60;;;;;;4973066;28;20038;-79
2023/12/04 10:24:32;;;;;;;16.42;8.43;;;3.40;93.80;;;;;;4972736;28;20027;-79
2023/12/04 10:26:58;;;;;;;15.18;8.55;;;3.40;93.00;;;;;;4960577;28;20118;-74
2023/12/04 10:29:30;;;;;;;18.40;9.63;;;3.60;93.70;;;;;;4972941;28;20447;-73
2023/12/04 10:31:59;;;;;;;15.43;8.38;;;3.80;94.10;;;;;;4973371;28;20035;-79
2023/12/04 10:34:26;;;;;;;18.95;9.57;;;4.00;92.50;;;;;;4973171;28;20023;-80
2023/12/04 10:36:52;;;;;;;25.02;8.13;;;4.10;92.00;;;;;;4972469;28;20035;-77
2023/12/04 10:39:18;;;;;;;19.58;7.93;;;4.00;90.00;;;;;;4971962;28;20158;-76
2023/12/04 10:41:44;;;;;;;24.90;13.32;;;4.20;90.00;;;;;;4976628;28;20125;-80
2023/12/04 10:44:17;;;;;;;15.30;7.57;;;4.30;90.80;;;;;;4976928;28;20019;-81
2023/12/04 10:46:45;;;;;;;12.40;6.60;;;4.40;90.00;;;;;;4976750;28;20042;-77
2023/12/04 10:49:12;;;;;;;13.57;6.03;;;3.90;87.60;;;;;;4976932;28;20146;-79
2023/12/04 10:51:38;;;;;;;15.13;7.35;;;3.90;88.70;;;;;;4976636;28;20481;-80
2023/12/04 10:54:05;;;;;;;15.85;8.65;;;3.80;88.40;;;;;;4976508;28;20019;-78
2023/12/04 10:56:37;;;;;;;23.90;11.80;;;3.90;84.80;;;;;;4976765;28;20038;-81
2023/12/04 10:59:10;;;;;;;14.02;5.68;;;3.90;86.20;;;;;;4976156;28;20109;-77
2023/12/04 11:01:38;;;;;;;13.10;5.43;;;3.90;83.50;;;;;;4959310;28;20101;-77
2023/12/04 11:04:07;;;;;;;13.30;7.05;;;4.00;85.70;;;;;;4976195;28;20438;-80
2023/12/04 11:06:37;;;;;;;15.43;7.00;;;3.80;96.10;;;;;;4976601;28;20043;-79
2023/12/04 11:09:05;;;;;;;9.57;5.90;;;4.10;86.70;;;;;;4976085;28;20031;-80
2023/12/04 11:11:40;;;;;;;18.58;9.73;;;3.80;85.00;;;;;;4976228;28;20063;-76
2023/12/04 11:14:10;;;;;;;16.10;7.95;;;4.00;89.60;;;;;;4976477;28;20118;-74
2023/12/04 11:16:46;;;;;;;15.10;6.68;;;4.10;89.20;;;;;;4975997;28;20070;-78
2023/12/04 11:19:32;;;;;;;13.05;6.95;;;4.20;88.90;;;;;;4976438;28;20027;-77
2023/12/04 11:22:02;;;;;;;12.75;6.78;;;3.90;88.10;;;;;;4976422;28;20105;-76
2023/12/04 11:24:28;;;;;;;11.77;6.20;;;4.00;90.00;;;;;;4976022;28;20050;-76
2023/12/04 11:26:54;;;;;;;12.90;7.03;;;3.80;90.20;;;;;;4963518;28;20102;-75
2023/12/04 11:29:22;;;;;;;14.80;6.30;;;3.70;90.40;;;;;;4975755;28;20023;-73
2023/12/04 11:31:48;;;;;;;19.30;8.20;;;3.90;88.80;;;;;;4976218;28;20031;-77
2023/12/04 11:34:14;;;;;;;11.60;5.90;;;4.20;90.50;;;;;;4976181;28;20031;-79
2023/12/04 11:36:40;;;;;;;11.48;4.82;;;4.20;87.70;;;;;;4975660;28;20058;-80
2023/12/04 11:39:12;;;;;;;16.23;6.05;;;3.80;82.30;;;;;;4975560;28;20034;-78
2023/12/04 11:41:40;;;;;;;15.98;8.15;;;4.10;84.50;;;;;;4976276;28;20026;-78
2023/12/04 11:44:15;;;;;;;13.05;5.15;;;4.30;86.30;;;;;;4975831;28;20038;-75
2023/12/04 11:47:03;;;;;;;11.93;5.28;;;4.40;82.40;;;;;;4975756;28;20034;-75
2023/12/04 11:49:30;;;;;;;11.77;4.18;;;4.40;82.20;;;;;;4975559;28;20466;-78
2023/12/04 11:52:06;;;;;;;7.95;4.32;;;4.20;79.10;;;;;;4975560;28;20478;-80
2023/12/04 11:55:08;;;;;;;10.30;5.10;;;4.20;82.10;;;;;;4975348;28;20023;-77
2023/12/04 11:57:36;;;;;;;11.98;5.63;;;4.10;82.00;;;;;;4953543;29;20411;-79
2023/12/04 12:00:21;;;;;;;16.33;8.07;;;4.00;83.90;;;;;;4954359;29;20035;-78
2023/12/04 12:03:09;;;;;;;12.73;5.90;;;4.30;84.80;;;;;;4954129;29;20050;-76
2023/12/04 12:05:38;;;;;;;27.20;17.52;;;4.40;79.50;;;;;;4953583;29;20039;-76
2023/12/04 12:08:06;;;;;;;16.20;7.13;;;4.40;80.20;;;;;;4953916;29;20082;-79
2023/12/04 12:10:33;;;;;;;17.02;6.68;;;4.50;80.50;;;;;;4953037;29;20047;-78
2023/12/04 12:12:59;;;;;;;17.05;8.02;;;4.50;80.30;;;;;;4953462;29;20514;-72
2023/12/04 12:15:25;;;;;;;16.20;8.32;;;4.40;79.30;;;;;;4953335;29;20035;-80
2023/12/04 12:17:52;;;;;;;11.13;6.25;;;4.30;78.40;;;;;;4953317;29;20043;-78
2023/12/04 12:20:20;;;;;;;15.85;8.45;;;4.30;78.80;;;;;;4953427;29;20087;-75
2023/12/04 12:22:47;;;;;;;14.48;7.40;;;4.40;79.30;;;;;;4953380;29;20034;-81
2023/12/04 12:25:13;;;;;;;14.60;7.78;;;4.20;78.50;;;;;;4953527;29;20431;-79
2023/12/04 12:27:40;;;;;;;11.13;6.03;;;4.40;81.20;;;;;;4953335;29;20416;-78
2023/12/04 12:30:07;;;;;;;13.88;6.43;;;4.30;78.00;;;;;;4953129;29;20028;-75
2023/12/04 12:32:36;;;;;;;11.35;6.15;;;4.40;80.90;;;;;;4968319;28;20049;-75